sensor_id;sensor_type;location;lat;lon;timestamp;P1;durP1;ratioP1;P2;durP2;ratioP2
63034;SDS011;59750;53.356;-1.458;2022-08-21T00:02:22;3.90;;;2.28;;
63034;SDS011;59750;53.356;-1.458;2022-08-21T00:04:51;4.97;;;1.60;;
63034;SDS011;59750;53.356;-1.458;2022-08-21T00:07:18;12.68;;;2.00;;
63034;SDS011;59750;53.356;-1.458;2022-08-21T00:09:46;8.10;;;2.05;;
63034;SDS011;59750;53.356;-1.458;2022-08-21T00:12:13;7.15;;;1.50;;
63034;SDS011;59750;53.356;-1.458;2022-08-21T00:14:39;5.03;;;2.10;;
63034;SDS011;59750;53.356;-1.458;2022-08-21T00:17:06;4.63;;;2.05;;
63034;SDS011;59750;53.356;-1.458;2022-08-21T00:19:33;12.52;;;2.85;;
63034;SDS011;59750;53.356;-1.458;2022-08-21T00:21:59;7.25;;;2.00;;
63034;SDS011;59750;53.356;-1.458;2022-08-21T00:24:25;7.97;;;3.03;;
63034;SDS011;59750;53.356;-1.458;2022-08-21T00:26:52;4.53;;;1.60;;
63034;SDS011;59750;53.356;-1.458;2022-08-21T00:29:19;7.55;;;1.77;;
63034;SDS011;59750;53.356;-1.458;2022-08-21T00:31:45;3.95;;;1.85;;
63034;SDS011;59750;53.356;-1.458;2022-08-21T00:34:12;6.15;;;2.40;;
63034;SDS011;59750;53.356;-1.458;2022-08-21T00:36:39;7.47;;;2.20;;
63034;SDS011;59750;53.356;-1.458;2022-08-21T00:39:05;7.90;;;2.20;;
63034;SDS011;59750;53.356;-1.458;2022-08-21T00:41:33;9.13;;;2.13;;
63034;SDS011;59750;53.356;-1.458;2022-08-21T00:44:02;8.32;;;3.08;;
63034;SDS011;59750;53.356;-1.458;2022-08-21T00:46:29;10.98;;;2.13;;
63034;SDS011;59750;53.356;-1.458;2022-08-21T00:48:56;3.85;;;1.98;;
63034;SDS011;59750;53.356;-1.458;2022-08-21T00:51:24;8.48;;;2.45;;
63034;SDS011;59750;53.356;-1.458;2022-08-21T00:53:56;9.98;;;2.45;;
63034;SDS011;59750;53.356;-1.458;2022-08-21T00:56:25;6.32;;;2.20;;
63034;SDS011;59750;53.356;-1.458;2022-08-21T00:58:52;5.05;;;1.63;;
63034;SDS011;59750;53.356;-1.458;2022-08-21T01:01:19;6.10;;;1.98;;
63034;SDS011;59750;53.356;-1.458;2022-08-21T01:03:45;7.80;;;2.33;;
63034;SDS011;59750;53.356;-1.458;2022-08-21T01:06:12;7.22;;;2.40;;
63034;SDS011;59750;53.356;-1.458;2022-08-21T01:08:39;8.43;;;2.33;;
63034;SDS011;59750;53.356;-1.458;2022-08-21T01:11:05;3.25;;;1.85;;
63034;SDS011;59750;53.356;-1.458;2022-08-21T01:13:32;6.28;;;2.20;;
63034;SDS011;59750;53.356;-1.458;2022-08-21T01:16:03;6.75;;;2.33;;
63034;SDS011;59750;53.356;-1.458;2022-08-21T01:23:31;7.57;;;2.13;;
63034;SDS011;59750;53.356;-1.458;2022-08-21T01:25:58;5.65;;;2.58;;
63034;SDS011;59750;53.356;-1.458;2022-08-21T01:28:24;5.22;;;2.33;;
63034;SDS011;59750;53.356;-1.458;2022-08-21T01:30:52;4.88;;;2.63;;
63034;SDS011;59750;53.356;-1.458;2022-08-21T01:33:19;3.67;;;2.10;;
63034;SDS011;59750;53.356;-1.458;2022-08-21T01:35:49;9.30;;;2.05;;
63034;SDS011;59750;53.356;-1.458;2022-08-21T01:38:16;5.78;;;2.08;;
63034;SDS011;59750;53.356;-1.458;2022-08-21T01:40:43;6.80;;;2.22;;
63034;SDS011;59750;53.356;-1.458;2022-08-21T01:43:09;6.22;;;2.15;;
63034;SDS011;59750;53.356;-1.458;2022-08-21T01:45:35;7.82;;;1.67;;
63034;SDS011;59750;53.356;-1.458;2022-08-21T01:48:02;10.55;;;2.30;;
63034;SDS011;59750;53.356;-1.458;2022-08-21T01:50:29;5.70;;;2.53;;
63034;SDS011;59750;53.356;-1.458;2022-08-21T01:52:56;5.10;;;1.95;;
63034;SDS011;59750;53.356;-1.458;2022-08-21T01:55:22;6.50;;;2.22;;
63034;SDS011;59750;53.356;-1.458;2022-08-21T01:57:48;5.13;;;2.25;;
63034;SDS011;59750;53.356;-1.458;2022-08-21T02:00:17;5.55;;;2.10;;
63034;SDS011;59750;53.356;-1.458;2022-08-21T02:02:44;4.28;;;2.15;;
63034;SDS011;59750;53.356;-1.458;2022-08-21T02:05:11;8.98;;;2.00;;
63034;SDS011;59750;53.356;-1.458;2022-08-21T02:07:39;5.53;;;2.13;;
63034;SDS011;59750;53.356;-1.458;2022-08-21T02:10:09;4.07;;;2.13;;
63034;SDS011;59750;53.356;-1.458;2022-08-21T02:12:38;7.40;;;2.35;;
63034;SDS011;59750;53.356;-1.458;2022-08-21T02:15:05;5.32;;;1.95;;
63034;SDS011;59750;53.356;-1.458;2022-08-21T02:20:21;5.53;;;2.75;;
63034;SDS011;59750;53.356;-1.458;2022-08-21T02:22:49;5.85;;;2.38;;
63034;SDS011;59750;53.356;-1.458;2022-08-21T02:25:16;6.78;;;2.47;;
63034;SDS011;59750;53.356;-1.458;2022-08-21T02:27:44;6.13;;;2.20;;
63034;SDS011;59750;53.356;-1.458;2022-08-21T02:30:15;6.85;;;2.22;;
63034;SDS011;59750;53.356;-1.458;2022-08-21T02:32:43;7.43;;;2.20;;
63034;SDS011;59750;53.356;-1.458;2022-08-21T02:35:10;7.05;;;2.25;;
63034;SDS011;59750;53.356;-1.458;2022-08-21T02:37:42;6.55;;;2.05;;
63034;SDS011;59750;53.356;-1.458;2022-08-21T02:40:12;7.85;;;2.90;;
63034;SDS011;59750;53.356;-1.458;2022-08-21T02:42:39;4.13;;;2.35;;
63034;SDS011;59750;53.356;-1.458;2022-08-21T02:45:05;8.60;;;2.50;;
63034;SDS011;59750;53.356;-1.458;2022-08-21T02:47:33;5.65;;;2.13;;
63034;SDS011;59750;53.356;-1.458;2022-08-21T02:49:59;5.00;;;1.80;;
63034;SDS011;59750;53.356;-1.458;2022-08-21T02:52:24;5.25;;;1.80;;
63034;SDS011;59750;53.356;-1.458;2022-08-21T02:54:50;6.47;;;2.13;;
63034;SDS011;59750;53.356;-1.458;2022-08-21T02:57:17;6.13;;;2.42;;
63034;SDS011;59750;53.356;-1.458;2022-08-21T02:59:42;6.38;;;2.50;;
63034;SDS011;59750;53.356;-1.458;2022-08-21T03:02:08;6.50;;;2.38;;
63034;SDS011;59750;53.356;-1.458;2022-08-21T03:04:34;6.68;;;2.10;;
63034;SDS011;59750;53.356;-1.458;2022-08-21T03:07:00;8.25;;;2.63;;
63034;SDS011;59750;53.356;-1.458;2022-08-21T03:09:26;7.18;;;2.40;;
63034;SDS011;59750;53.356;-1.458;2022-08-21T03:11:52;7.43;;;2.15;;
63034;SDS011;59750;53.356;-1.458;2022-08-21T03:14:19;6.32;;;2.20;;
63034;SDS011;59750;53.356;-1.458;2022-08-21T03:16:44;5.18;;;1.92;;
63034;SDS011;59750;53.356;-1.458;2022-08-21T03:19:11;7.13;;;2.22;;
63034;SDS011;59750;53.356;-1.458;2022-08-21T03:21:38;7.60;;;2.20;;
63034;SDS011;59750;53.356;-1.458;2022-08-21T03:24:04;5.07;;;2.33;;
63034;SDS011;59750;53.356;-1.458;2022-08-21T03:26:30;6.93;;;2.42;;
63034;SDS011;59750;53.356;-1.458;2022-08-21T03:28:56;6.13;;;2.08;;
63034;SDS011;59750;53.356;-1.458;2022-08-21T03:31:23;9.95;;;2.67;;
63034;SDS011;59750;53.356;-1.458;2022-08-21T03:33:52;11.52;;;2.45;;
63034;SDS011;59750;53.356;-1.458;2022-08-21T03:36:20;10.90;;;2.97;;
63034;SDS011;59750;53.356;-1.458;2022-08-21T03:38:46;9.23;;;2.40;;
63034;SDS011;59750;53.356;-1.458;2022-08-21T03:41:12;6.50;;;2.35;;
63034;SDS011;59750;53.356;-1.458;2022-08-21T03:43:38;7.35;;;2.55;;
63034;SDS011;59750;53.356;-1.458;2022-08-21T03:46:04;7.15;;;3.10;;
63034;SDS011;59750;53.356;-1.458;2022-08-21T03:48:32;9.50;;;2.38;;
63034;SDS011;59750;53.356;-1.458;2022-08-21T03:50:59;6.15;;;2.15;;
63034;SDS011;59750;53.356;-1.458;2022-08-21T03:53:25;8.00;;;2.40;;
63034;SDS011;59750;53.356;-1.458;2022-08-21T03:55:52;6.97;;;2.20;;
63034;SDS011;59750;53.356;-1.458;2022-08-21T03:58:20;9.30;;;2.53;;
63034;SDS011;59750;53.356;-1.458;2022-08-21T04:00:48;6.10;;;2.38;;
63034;SDS011;59750;53.356;-1.458;2022-08-21T04:03:16;8.10;;;2.20;;
63034;SDS011;59750;53.356;-1.458;2022-08-21T04:05:42;6.32;;;2.10;;
63034;SDS011;59750;53.356;-1.458;2022-08-21T04:08:10;5.35;;;2.10;;
63034;SDS011;59750;53.356;-1.458;2022-08-21T04:10:38;8.27;;;2.55;;
63034;SDS011;59750;53.356;-1.458;2022-08-21T04:13:06;7.70;;;2.63;;
63034;SDS011;59750;53.356;-1.458;2022-08-21T04:15:33;6.65;;;3.22;;
63034;SDS011;59750;53.356;-1.458;2022-08-21T04:18:00;8.80;;;2.38;;
63034;SDS011;59750;53.356;-1.458;2022-08-21T04:20:27;5.03;;;2.38;;
63034;SDS011;59750;53.356;-1.458;2022-08-21T04:22:54;5.63;;;1.83;;
63034;SDS011;59750;53.356;-1.458;2022-08-21T04:25:21;6.85;;;2.50;;
63034;SDS011;59750;53.356;-1.458;2022-08-21T04:27:49;5.03;;;2.53;;
63034;SDS011;59750;53.356;-1.458;2022-08-21T04:30:16;11.30;;;2.78;;
63034;SDS011;59750;53.356;-1.458;2022-08-21T04:32:44;4.55;;;2.15;;
63034;SDS011;59750;53.356;-1.458;2022-08-21T04:35:13;7.82;;;2.35;;
63034;SDS011;59750;53.356;-1.458;2022-08-21T04:37:41;5.70;;;2.65;;
63034;SDS011;59750;53.356;-1.458;2022-08-21T04:40:07;13.05;;;2.78;;
63034;SDS011;59750;53.356;-1.458;2022-08-21T04:42:40;7.15;;;2.63;;
63034;SDS011;59750;53.356;-1.458;2022-08-21T04:45:18;5.50;;;2.30;;
63034;SDS011;59750;53.356;-1.458;2022-08-21T04:47:50;6.57;;;2.53;;
63034;SDS011;59750;53.356;-1.458;2022-08-21T04:50:18;10.98;;;2.63;;
63034;SDS011;59750;53.356;-1.458;2022-08-21T04:52:45;7.22;;;2.92;;
63034;SDS011;59750;53.356;-1.458;2022-08-21T04:55:12;7.65;;;2.53;;
63034;SDS011;59750;53.356;-1.458;2022-08-21T04:57:38;6.60;;;2.95;;
63034;SDS011;59750;53.356;-1.458;2022-08-21T05:00:07;6.90;;;3.20;;
63034;SDS011;59750;53.356;-1.458;2022-08-21T05:02:36;5.85;;;2.45;;
63034;SDS011;59750;53.356;-1.458;2022-08-21T05:05:03;6.78;;;2.40;;
63034;SDS011;59750;53.356;-1.458;2022-08-21T05:07:31;7.35;;;2.20;;
63034;SDS011;59750;53.356;-1.458;2022-08-21T05:09:58;7.10;;;2.88;;
63034;SDS011;59750;53.356;-1.458;2022-08-21T05:12:25;9.35;;;3.35;;
63034;SDS011;59750;53.356;-1.458;2022-08-21T05:14:51;8.40;;;3.60;;
63034;SDS011;59750;53.356;-1.458;2022-08-21T05:17:17;4.15;;;2.55;;
63034;SDS011;59750;53.356;-1.458;2022-08-21T05:19:43;7.40;;;2.67;;
63034;SDS011;59750;53.356;-1.458;2022-08-21T05:22:09;8.10;;;2.55;;
63034;SDS011;59750;53.356;-1.458;2022-08-21T05:24:35;5.28;;;2.70;;
63034;SDS011;59750;53.356;-1.458;2022-08-21T05:27:01;5.70;;;2.75;;
63034;SDS011;59750;53.356;-1.458;2022-08-21T05:29:28;6.55;;;2.55;;
63034;SDS011;59750;53.356;-1.458;2022-08-21T05:31:55;8.88;;;2.53;;
63034;SDS011;59750;53.356;-1.458;2022-08-21T05:34:21;6.05;;;2.95;;
63034;SDS011;59750;53.356;-1.458;2022-08-21T05:36:48;7.80;;;3.47;;
63034;SDS011;59750;53.356;-1.458;2022-08-21T05:39:15;7.40;;;2.67;;
63034;SDS011;59750;53.356;-1.458;2022-08-21T05:41:41;10.05;;;2.85;;
63034;SDS011;59750;53.356;-1.458;2022-08-21T05:44:07;10.00;;;3.60;;
63034;SDS011;59750;53.356;-1.458;2022-08-21T05:46:33;4.97;;;2.40;;
63034;SDS011;59750;53.356;-1.458;2022-08-21T05:49:01;7.57;;;2.80;;
63034;SDS011;59750;53.356;-1.458;2022-08-21T05:51:27;5.35;;;2.92;;
63034;SDS011;59750;53.356;-1.458;2022-08-21T05:53:53;6.00;;;2.70;;
63034;SDS011;59750;53.356;-1.458;2022-08-21T05:56:19;6.20;;;2.47;;
63034;SDS011;59750;53.356;-1.458;2022-08-21T05:58:44;6.90;;;2.40;;
63034;SDS011;59750;53.356;-1.458;2022-08-21T06:01:10;6.60;;;3.05;;
63034;SDS011;59750;53.356;-1.458;2022-08-21T06:03:37;9.18;;;2.30;;
63034;SDS011;59750;53.356;-1.458;2022-08-21T06:06:04;4.50;;;2.92;;
63034;SDS011;59750;53.356;-1.458;2022-08-21T06:08:31;7.75;;;3.15;;
63034;SDS011;59750;53.356;-1.458;2022-08-21T06:10:59;6.60;;;2.30;;
63034;SDS011;59750;53.356;-1.458;2022-08-21T06:13:26;5.30;;;2.67;;
63034;SDS011;59750;53.356;-1.458;2022-08-21T06:18:39;6.00;;;2.60;;
63034;SDS011;59750;53.356;-1.458;2022-08-21T06:21:06;3.10;;;2.70;;
63034;SDS011;59750;53.356;-1.458;2022-08-21T06:23:33;7.07;;;2.42;;
63034;SDS011;59750;53.356;-1.458;2022-08-21T06:26:00;6.75;;;3.08;;
63034;SDS011;59750;53.356;-1.458;2022-08-21T06:28:27;4.93;;;2.90;;
63034;SDS011;59750;53.356;-1.458;2022-08-21T06:30:53;10.18;;;3.50;;
63034;SDS011;59750;53.356;-1.458;2022-08-21T06:33:22;7.35;;;2.90;;
63034;SDS011;59750;53.356;-1.458;2022-08-21T06:35:49;10.55;;;3.40;;
63034;SDS011;59750;53.356;-1.458;2022-08-21T06:38:15;4.50;;;2.55;;
63034;SDS011;59750;53.356;-1.458;2022-08-21T06:40:42;9.50;;;3.53;;
63034;SDS011;59750;53.356;-1.458;2022-08-21T06:43:09;4.05;;;2.80;;
63034;SDS011;59750;53.356;-1.458;2022-08-21T06:45:41;18.38;;;3.65;;
63034;SDS011;59750;53.356;-1.458;2022-08-21T06:48:09;7.03;;;3.10;;
63034;SDS011;59750;53.356;-1.458;2022-08-21T06:50:35;7.32;;;3.50;;
63034;SDS011;59750;53.356;-1.458;2022-08-21T06:53:07;6.78;;;3.15;;
63034;SDS011;59750;53.356;-1.458;2022-08-21T06:55:35;4.38;;;3.17;;
63034;SDS011;59750;53.356;-1.458;2022-08-21T06:58:03;5.68;;;3.45;;
63034;SDS011;59750;53.356;-1.458;2022-08-21T07:00:31;6.05;;;3.00;;
63034;SDS011;59750;53.356;-1.458;2022-08-21T07:02:57;4.05;;;2.78;;
63034;SDS011;59750;53.356;-1.458;2022-08-21T07:05:25;4.75;;;2.78;;
63034;SDS011;59750;53.356;-1.458;2022-08-21T07:07:54;5.53;;;3.35;;
63034;SDS011;59750;53.356;-1.458;2022-08-21T07:10:20;5.35;;;2.78;;
63034;SDS011;59750;53.356;-1.458;2022-08-21T07:12:46;5.30;;;3.05;;
63034;SDS011;59750;53.356;-1.458;2022-08-21T07:15:13;7.75;;;3.08;;
63034;SDS011;59750;53.356;-1.458;2022-08-21T07:17:39;5.82;;;3.22;;
63034;SDS011;59750;53.356;-1.458;2022-08-21T07:20:05;4.80;;;3.00;;
63034;SDS011;59750;53.356;-1.458;2022-08-21T07:22:31;7.55;;;3.45;;
63034;SDS011;59750;53.356;-1.458;2022-08-21T07:24:59;6.88;;;3.22;;
63034;SDS011;59750;53.356;-1.458;2022-08-21T07:27:25;5.55;;;3.03;;
63034;SDS011;59750;53.356;-1.458;2022-08-21T07:29:51;6.80;;;2.95;;
63034;SDS011;59750;53.356;-1.458;2022-08-21T07:32:16;7.28;;;3.35;;
63034;SDS011;59750;53.356;-1.458;2022-08-21T07:34:42;5.95;;;3.20;;
63034;SDS011;59750;53.356;-1.458;2022-08-21T07:37:09;7.20;;;3.17;;
63034;SDS011;59750;53.356;-1.458;2022-08-21T07:39:35;6.97;;;3.25;;
63034;SDS011;59750;53.356;-1.458;2022-08-21T07:42:02;5.53;;;2.95;;
63034;SDS011;59750;53.356;-1.458;2022-08-21T07:44:29;6.10;;;3.25;;
63034;SDS011;59750;53.356;-1.458;2022-08-21T07:46:55;8.25;;;2.92;;
63034;SDS011;59750;53.356;-1.458;2022-08-21T07:49:21;7.00;;;3.28;;
63034;SDS011;59750;53.356;-1.458;2022-08-21T07:51:47;4.75;;;3.22;;
63034;SDS011;59750;53.356;-1.458;2022-08-21T07:54:14;5.88;;;3.30;;
63034;SDS011;59750;53.356;-1.458;2022-08-21T07:56:40;7.20;;;2.95;;
63034;SDS011;59750;53.356;-1.458;2022-08-21T07:59:06;9.45;;;3.28;;
63034;SDS011;59750;53.356;-1.458;2022-08-21T08:01:32;5.82;;;2.53;;
63034;SDS011;59750;53.356;-1.458;2022-08-21T08:03:58;6.03;;;2.55;;
63034;SDS011;59750;53.356;-1.458;2022-08-21T08:06:25;6.90;;;2.58;;
63034;SDS011;59750;53.356;-1.458;2022-08-21T08:08:51;6.43;;;2.85;;
63034;SDS011;59750;53.356;-1.458;2022-08-21T08:11:17;5.93;;;2.83;;
63034;SDS011;59750;53.356;-1.458;2022-08-21T08:13:45;5.85;;;3.83;;
63034;SDS011;59750;53.356;-1.458;2022-08-21T08:16:14;4.88;;;2.33;;
63034;SDS011;59750;53.356;-1.458;2022-08-21T08:18:42;7.03;;;2.80;;
63034;SDS011;59750;53.356;-1.458;2022-08-21T08:21:10;9.30;;;2.63;;
63034;SDS011;59750;53.356;-1.458;2022-08-21T08:23:38;7.25;;;2.88;;
63034;SDS011;59750;53.356;-1.458;2022-08-21T08:26:05;3.97;;;2.30;;
63034;SDS011;59750;53.356;-1.458;2022-08-21T08:28:31;6.65;;;2.60;;
63034;SDS011;59750;53.356;-1.458;2022-08-21T08:30:58;4.88;;;2.25;;
63034;SDS011;59750;53.356;-1.458;2022-08-21T08:33:26;3.78;;;2.17;;
63034;SDS011;59750;53.356;-1.458;2022-08-21T08:35:53;8.73;;;2.60;;
63034;SDS011;59750;53.356;-1.458;2022-08-21T08:38:20;4.50;;;2.10;;
63034;SDS011;59750;53.356;-1.458;2022-08-21T08:43:38;6.90;;;2.33;;
63034;SDS011;59750;53.356;-1.458;2022-08-21T08:46:11;4.93;;;1.80;;
63034;SDS011;59750;53.356;-1.458;2022-08-21T08:51:23;7.13;;;2.40;;
63034;SDS011;59750;53.356;-1.458;2022-08-21T08:54:02;6.95;;;2.15;;
63034;SDS011;59750;53.356;-1.458;2022-08-21T08:56:34;3.75;;;1.75;;
63034;SDS011;59750;53.356;-1.458;2022-08-21T08:59:02;5.10;;;1.65;;
63034;SDS011;59750;53.356;-1.458;2022-08-21T09:01:39;6.25;;;1.60;;
63034;SDS011;59750;53.356;-1.458;2022-08-21T09:04:05;4.05;;;1.50;;
63034;SDS011;59750;53.356;-1.458;2022-08-21T09:11:56;4.80;;;1.60;;
63034;SDS011;59750;53.356;-1.458;2022-08-21T09:17:17;4.03;;;1.35;;
63034;SDS011;59750;53.356;-1.458;2022-08-21T09:22:57;4.30;;;2.08;;
63034;SDS011;59750;53.356;-1.458;2022-08-21T09:25:31;3.22;;;1.33;;
63034;SDS011;59750;53.356;-1.458;2022-08-21T09:28:07;6.82;;;1.80;;
63034;SDS011;59750;53.356;-1.458;2022-08-21T09:30:36;2.25;;;1.30;;
63034;SDS011;59750;53.356;-1.458;2022-08-21T09:33:07;4.05;;;1.25;;
63034;SDS011;59750;53.356;-1.458;2022-08-21T09:35:35;5.85;;;1.40;;
63034;SDS011;59750;53.356;-1.458;2022-08-21T09:38:04;5.53;;;2.35;;
63034;SDS011;59750;53.356;-1.458;2022-08-21T09:45:34;5.75;;;1.63;;
63034;SDS011;59750;53.356;-1.458;2022-08-21T09:50:51;4.97;;;1.40;;
63034;SDS011;59750;53.356;-1.458;2022-08-21T09:53:21;6.68;;;1.40;;
63034;SDS011;59750;53.356;-1.458;2022-08-21T09:55:53;3.25;;;1.20;;
63034;SDS011;59750;53.356;-1.458;2022-08-21T09:58:43;3.53;;;1.45;;
63034;SDS011;59750;53.356;-1.458;2022-08-21T10:01:13;3.15;;;1.30;;
63034;SDS011;59750;53.356;-1.458;2022-08-21T10:03:44;3.22;;;1.20;;
63034;SDS011;59750;53.356;-1.458;2022-08-21T10:06:19;5.05;;;2.17;;
63034;SDS011;59750;53.356;-1.458;2022-08-21T10:09:03;4.22;;;1.30;;
63034;SDS011;59750;53.356;-1.458;2022-08-21T10:11:33;5.38;;;1.45;;
63034;SDS011;59750;53.356;-1.458;2022-08-21T10:25:18;5.70;;;1.65;;
63034;SDS011;59750;53.356;-1.458;2022-08-21T10:39:15;4.25;;;0.90;;
63034;SDS011;59750;53.356;-1.458;2022-08-21T10:44:40;5.30;;;1.17;;
63034;SDS011;59750;53.356;-1.458;2022-08-21T10:47:19;4.00;;;1.38;;
63034;SDS011;59750;53.356;-1.458;2022-08-21T10:49:58;5.03;;;1.08;;
63034;SDS011;59750;53.356;-1.458;2022-08-21T10:55:18;3.15;;;1.35;;
63034;SDS011;59750;53.356;-1.458;2022-08-21T11:00:23;3.10;;;1.35;;
63034;SDS011;59750;53.356;-1.458;2022-08-21T11:03:00;4.22;;;2.05;;
63034;SDS011;59750;53.356;-1.458;2022-08-21T11:05:42;7.05;;;2.50;;
63034;SDS011;59750;53.356;-1.458;2022-08-21T11:08:12;4.55;;;3.75;;
63034;SDS011;59750;53.356;-1.458;2022-08-21T11:10:46;5.95;;;2.38;;
63034;SDS011;59750;53.356;-1.458;2022-08-21T11:18:51;2.70;;;1.73;;
63034;SDS011;59750;53.356;-1.458;2022-08-21T11:24:22;3.33;;;1.90;;
63034;SDS011;59750;53.356;-1.458;2022-08-21T11:27:15;5.10;;;1.70;;
63034;SDS011;59750;53.356;-1.458;2022-08-21T11:29:50;5.07;;;1.60;;
63034;SDS011;59750;53.356;-1.458;2022-08-21T11:32:25;5.97;;;1.65;;
63034;SDS011;59750;53.356;-1.458;2022-08-21T11:51:50;6.35;;;4.63;;
63034;SDS011;59750;53.356;-1.458;2022-08-21T12:00:16;6.38;;;1.98;;
63034;SDS011;59750;53.356;-1.458;2022-08-21T12:02:54;4.90;;;1.55;;
63034;SDS011;59750;53.356;-1.458;2022-08-21T12:05:31;3.47;;;1.75;;
63034;SDS011;59750;53.356;-1.458;2022-08-21T12:08:26;4.45;;;1.60;;
63034;SDS011;59750;53.356;-1.458;2022-08-21T12:11:02;2.80;;;1.23;;
63034;SDS011;59750;53.356;-1.458;2022-08-21T12:13:57;4.13;;;1.65;;
63034;SDS011;59750;53.356;-1.458;2022-08-21T12:16:38;2.72;;;1.55;;
63034;SDS011;59750;53.356;-1.458;2022-08-21T12:27:30;4.78;;;1.42;;
63034;SDS011;59750;53.356;-1.458;2022-08-21T12:32:58;4.30;;;1.58;;
63034;SDS011;59750;53.356;-1.458;2022-08-21T12:35:31;3.75;;;1.65;;
63034;SDS011;59750;53.356;-1.458;2022-08-21T12:40:39;3.10;;;1.58;;
63034;SDS011;59750;53.356;-1.458;2022-08-21T12:43:12;3.67;;;1.35;;
63034;SDS011;59750;53.356;-1.458;2022-08-21T12:45:43;4.47;;;1.50;;
63034;SDS011;59750;53.356;-1.458;2022-08-21T12:48:14;4.65;;;1.92;;
63034;SDS011;59750;53.356;-1.458;2022-08-21T12:53:33;5.53;;;1.95;;
63034;SDS011;59750;53.356;-1.458;2022-08-21T12:56:08;3.15;;;1.60;;
63034;SDS011;59750;53.356;-1.458;2022-08-21T12:58:39;2.45;;;1.40;;
63034;SDS011;59750;53.356;-1.458;2022-08-21T13:04:03;4.38;;;1.63;;
63034;SDS011;59750;53.356;-1.458;2022-08-21T13:06:38;4.05;;;1.65;;
63034;SDS011;59750;53.356;-1.458;2022-08-21T13:09:11;3.60;;;1.42;;
63034;SDS011;59750;53.356;-1.458;2022-08-21T13:11:43;2.42;;;1.48;;
63034;SDS011;59750;53.356;-1.458;2022-08-21T13:14:29;4.90;;;1.55;;
63034;SDS011;59750;53.356;-1.458;2022-08-21T13:17:00;4.15;;;1.60;;
63034;SDS011;59750;53.356;-1.458;2022-08-21T13:19:31;3.47;;;1.50;;
63034;SDS011;59750;53.356;-1.458;2022-08-21T13:21:58;2.53;;;1.50;;
63034;SDS011;59750;53.356;-1.458;2022-08-21T13:26:54;1.98;;;1.20;;
63034;SDS011;59750;53.356;-1.458;2022-08-21T13:29:27;2.60;;;1.40;;
63034;SDS011;59750;53.356;-1.458;2022-08-21T13:31:58;5.40;;;1.38;;
63034;SDS011;59750;53.356;-1.458;2022-08-21T13:34:30;2.33;;;1.40;;
63034;SDS011;59750;53.356;-1.458;2022-08-21T13:37:06;1.73;;;1.30;;
63034;SDS011;59750;53.356;-1.458;2022-08-21T13:39:34;2.13;;;1.17;;
63034;SDS011;59750;53.356;-1.458;2022-08-21T13:42:02;3.67;;;1.40;;
63034;SDS011;59750;53.356;-1.458;2022-08-21T13:44:39;2.95;;;1.13;;
63034;SDS011;59750;53.356;-1.458;2022-08-21T13:47:09;3.35;;;1.25;;
63034;SDS011;59750;53.356;-1.458;2022-08-21T13:49:41;4.05;;;1.40;;
63034;SDS011;59750;53.356;-1.458;2022-08-21T13:52:14;2.85;;;1.70;;
63034;SDS011;59750;53.356;-1.458;2022-08-21T13:54:51;3.58;;;1.50;;
63034;SDS011;59750;53.356;-1.458;2022-08-21T14:00:10;4.85;;;1.40;;
63034;SDS011;59750;53.356;-1.458;2022-08-21T14:02:41;3.67;;;1.40;;
63034;SDS011;59750;53.356;-1.458;2022-08-21T14:05:16;3.83;;;1.48;;
63034;SDS011;59750;53.356;-1.458;2022-08-21T14:07:49;2.47;;;1.40;;
63034;SDS011;59750;53.356;-1.458;2022-08-21T14:10:22;3.58;;;1.80;;
63034;SDS011;59750;53.356;-1.458;2022-08-21T14:12:51;2.90;;;1.60;;
63034;SDS011;59750;53.356;-1.458;2022-08-21T14:15:23;3.70;;;1.30;;
63034;SDS011;59750;53.356;-1.458;2022-08-21T14:17:54;5.13;;;1.45;;
63034;SDS011;59750;53.356;-1.458;2022-08-21T14:20:34;2.90;;;1.25;;
63034;SDS011;59750;53.356;-1.458;2022-08-21T14:23:02;2.30;;;1.20;;
63034;SDS011;59750;53.356;-1.458;2022-08-21T14:25:30;4.38;;;1.50;;
63034;SDS011;59750;53.356;-1.458;2022-08-21T14:30:49;2.85;;;1.40;;
63034;SDS011;59750;53.356;-1.458;2022-08-21T14:33:20;5.00;;;1.50;;
63034;SDS011;59750;53.356;-1.458;2022-08-21T14:35:52;2.97;;;1.40;;
63034;SDS011;59750;53.356;-1.458;2022-08-21T14:38:21;2.83;;;1.65;;
63034;SDS011;59750;53.356;-1.458;2022-08-21T14:40:56;3.28;;;1.40;;
63034;SDS011;59750;53.356;-1.458;2022-08-21T14:43:27;2.10;;;1.55;;
63034;SDS011;59750;53.356;-1.458;2022-08-21T14:45:54;2.65;;;1.50;;
63034;SDS011;59750;53.356;-1.458;2022-08-21T14:48:22;2.65;;;1.27;;
63034;SDS011;59750;53.356;-1.458;2022-08-21T14:50:49;2.22;;;1.50;;
63034;SDS011;59750;53.356;-1.458;2022-08-21T14:53:15;2.00;;;1.38;;
63034;SDS011;59750;53.356;-1.458;2022-08-21T14:55:42;3.03;;;2.15;;
63034;SDS011;59750;53.356;-1.458;2022-08-21T14:58:26;3.65;;;1.65;;
63034;SDS011;59750;53.356;-1.458;2022-08-21T15:00:53;4.43;;;2.35;;
63034;SDS011;59750;53.356;-1.458;2022-08-21T15:03:24;3.83;;;2.20;;
63034;SDS011;59750;53.356;-1.458;2022-08-21T15:05:51;4.80;;;2.15;;
63034;SDS011;59750;53.356;-1.458;2022-08-21T15:08:18;4.90;;;2.17;;
63034;SDS011;59750;53.356;-1.458;2022-08-21T15:10:44;3.05;;;2.13;;
63034;SDS011;59750;53.356;-1.458;2022-08-21T15:13:11;7.35;;;4.82;;
63034;SDS011;59750;53.356;-1.458;2022-08-21T15:15:40;4.57;;;2.70;;
63034;SDS011;59750;53.356;-1.458;2022-08-21T15:18:09;6.15;;;1.48;;
63034;SDS011;59750;53.356;-1.458;2022-08-21T15:20:36;3.70;;;1.67;;
63034;SDS011;59750;53.356;-1.458;2022-08-21T15:23:04;3.92;;;1.80;;
63034;SDS011;59750;53.356;-1.458;2022-08-21T15:25:32;3.45;;;1.77;;
63034;SDS011;59750;53.356;-1.458;2022-08-21T15:27:58;6.10;;;2.50;;
63034;SDS011;59750;53.356;-1.458;2022-08-21T15:30:26;4.28;;;2.83;;
63034;SDS011;59750;53.356;-1.458;2022-08-21T15:32:54;9.85;;;7.25;;
63034;SDS011;59750;53.356;-1.458;2022-08-21T15:35:20;6.45;;;4.82;;
63034;SDS011;59750;53.356;-1.458;2022-08-21T15:37:46;4.63;;;3.72;;
63034;SDS011;59750;53.356;-1.458;2022-08-21T15:40:13;5.30;;;3.28;;
63034;SDS011;59750;53.356;-1.458;2022-08-21T15:42:41;3.92;;;2.30;;
63034;SDS011;59750;53.356;-1.458;2022-08-21T15:45:08;2.92;;;2.03;;
63034;SDS011;59750;53.356;-1.458;2022-08-21T15:47:37;3.33;;;2.00;;
63034;SDS011;59750;53.356;-1.458;2022-08-21T15:50:05;4.28;;;2.78;;
63034;SDS011;59750;53.356;-1.458;2022-08-21T15:52:33;5.35;;;2.72;;
63034;SDS011;59750;53.356;-1.458;2022-08-21T15:55:00;5.05;;;2.60;;
63034;SDS011;59750;53.356;-1.458;2022-08-21T15:57:26;4.15;;;2.92;;
63034;SDS011;59750;53.356;-1.458;2022-08-21T15:59:54;5.18;;;3.55;;
63034;SDS011;59750;53.356;-1.458;2022-08-21T16:02:24;6.78;;;3.28;;
63034;SDS011;59750;53.356;-1.458;2022-08-21T16:04:53;7.10;;;5.57;;
63034;SDS011;59750;53.356;-1.458;2022-08-21T16:07:20;8.05;;;5.00;;
63034;SDS011;59750;53.356;-1.458;2022-08-21T16:09:47;3.55;;;2.75;;
63034;SDS011;59750;53.356;-1.458;2022-08-21T16:12:17;4.03;;;2.50;;
63034;SDS011;59750;53.356;-1.458;2022-08-21T16:14:51;4.03;;;2.35;;
63034;SDS011;59750;53.356;-1.458;2022-08-21T16:17:20;6.03;;;3.33;;
63034;SDS011;59750;53.356;-1.458;2022-08-21T16:19:50;4.53;;;2.83;;
63034;SDS011;59750;53.356;-1.458;2022-08-21T16:22:18;3.85;;;2.15;;
63034;SDS011;59750;53.356;-1.458;2022-08-21T16:24:45;4.43;;;1.98;;
63034;SDS011;59750;53.356;-1.458;2022-08-21T16:27:11;4.07;;;1.83;;
63034;SDS011;59750;53.356;-1.458;2022-08-21T16:29:38;3.08;;;1.58;;
63034;SDS011;59750;53.356;-1.458;2022-08-21T16:32:05;2.90;;;1.60;;
63034;SDS011;59750;53.356;-1.458;2022-08-21T16:34:33;3.60;;;2.05;;
63034;SDS011;59750;53.356;-1.458;2022-08-21T16:37:01;4.82;;;2.47;;
63034;SDS011;59750;53.356;-1.458;2022-08-21T16:39:27;7.30;;;2.85;;
63034;SDS011;59750;53.356;-1.458;2022-08-21T16:41:54;2.75;;;2.38;;
63034;SDS011;59750;53.356;-1.458;2022-08-21T16:44:21;6.88;;;2.58;;
63034;SDS011;59750;53.356;-1.458;2022-08-21T16:46:48;5.15;;;2.50;;
63034;SDS011;59750;53.356;-1.458;2022-08-21T16:49:14;5.85;;;2.45;;